sensor_id;sensor_type;location;lat;lon;timestamp;temperature;humidity
44851;DHT22;30583;48.714;9.386;2023-12-20T00:00:20;6.80;74.30
44851;DHT22;30583;48.714;9.386;2023-12-20T00:02:45;7.10;73.80
44851;DHT22;30583;48.714;9.386;2023-12-20T00:05:13;7.20;73.20
44851;DHT22;30583;48.714;9.386;2023-12-20T00:07:39;7.10;73.50
44851;DHT22;30583;48.714;9.386;2023-12-20T00:10:05;7.30;73.00
44851;DHT22;30583;48.714;9.386;2023-12-20T00:12:30;7.30;73.00
44851;DHT22;30583;48.714;9.386;2023-12-20T00:14:56;7.30;72.90
44851;DHT22;30583;48.714;9.386;2023-12-20T00:17:22;7.30;73.10
44851;DHT22;30583;48.714;9.386;2023-12-20T00:19:47;7.30;73.20
44851;DHT22;30583;48.714;9.386;2023-12-20T00:22:13;7.30;73.30
44851;DHT22;30583;48.714;9.386;2023-12-20T00:24:38;7.10;73.60
44851;DHT22;30583;48.714;9.386;2023-12-20T00:27:04;7.20;73.60
44851;DHT22;30583;48.714;9.386;2023-12-20T00:29:30;7.30;73.70
44851;DHT22;30583;48.714;9.386;2023-12-20T00:31:55;7.20;74.20
44851;DHT22;30583;48.714;9.386;2023-12-20T00:34:21;7.50;73.40
44851;DHT22;30583;48.714;9.386;2023-12-20T00:36:46;7.30;73.90
44851;DHT22;30583;48.714;9.386;2023-12-20T00:39:12;7.40;73.90
44851;DHT22;30583;48.714;9.386;2023-12-20T00:41:38;7.30;74.10
44851;DHT22;30583;48.714;9.386;2023-12-20T00:44:04;7.30;74.50
44851;DHT22;30583;48.714;9.386;2023-12-20T00:46:29;7.30;74.30
44851;DHT22;30583;48.714;9.386;2023-12-20T00:48:55;7.40;74.00
44851;DHT22;30583;48.714;9.386;2023-12-20T00:51:20;7.40;73.60
44851;DHT22;30583;48.714;9.386;2023-12-20T00:53:48;7.40;73.70
44851;DHT22;30583;48.714;9.386;2023-12-20T00:56:14;7.40;73.80
44851;DHT22;30583;48.714;9.386;2023-12-20T00:58:40;7.60;73.60
44851;DHT22;30583;48.714;9.386;2023-12-20T01:01:05;7.70;73.40
44851;DHT22;30583;48.714;9.386;2023-12-20T01:03:31;7.60;73.80
44851;DHT22;30583;48.714;9.386;2023-12-20T01:05:56;7.60;73.80
44851;DHT22;30583;48.714;9.386;2023-12-20T01:08:22;7.50;74.00
44851;DHT22;30583;48.714;9.386;2023-12-20T01:10:48;7.60;74.10
44851;DHT22;30583;48.714;9.386;2023-12-20T01:13:13;7.70;73.70
44851;DHT22;30583;48.714;9.386;2023-12-20T01:15:39;7.60;74.40
44851;DHT22;30583;48.714;9.386;2023-12-20T01:18:05;7.70;74.40
44851;DHT22;30583;48.714;9.386;2023-12-20T01:20:30;7.80;74.50
44851;DHT22;30583;48.714;9.386;2023-12-20T01:22:56;7.80;74.30
44851;DHT22;30583;48.714;9.386;2023-12-20T01:25:22;7.80;74.50
44851;DHT22;30583;48.714;9.386;2023-12-20T01:27:47;7.60;74.90
44851;DHT22;30583;48.714;9.386;2023-12-20T01:30:14;7.80;75.00
44851;DHT22;30583;48.714;9.386;2023-12-20T01:32:40;7.60;75.60
44851;DHT22;30583;48.714;9.386;2023-12-20T01:35:06;7.70;75.70
44851;DHT22;30583;48.714;9.386;2023-12-20T01:37:31;7.70;76.30
44851;DHT22;30583;48.714;9.386;2023-12-20T01:39:57;7.70;76.70
44851;DHT22;30583;48.714;9.386;2023-12-20T01:42:24;7.70;76.80
44851;DHT22;30583;48.714;9.386;2023-12-20T01:44:49;7.70;77.00
44851;DHT22;30583;48.714;9.386;2023-12-20T01:47:15;7.80;77.20
44851;DHT22;30583;48.714;9.386;2023-12-20T01:49:41;7.70;77.40
44851;DHT22;30583;48.714;9.386;2023-12-20T01:52:06;7.70;78.00
44851;DHT22;30583;48.714;9.386;2023-12-20T01:54:34;7.40;78.50
44851;DHT22;30583;48.714;9.386;2023-12-20T01:57:00;7.40;79.10
44851;DHT22;30583;48.714;9.386;2023-12-20T01:59:26;7.50;79.20
44851;DHT22;30583;48.714;9.386;2023-12-20T02:01:53;7.40;79.70
44851;DHT22;30583;48.714;9.386;2023-12-20T02:04:19;7.50;79.70
44851;DHT22;30583;48.714;9.386;2023-12-20T02:06:46;7.60;79.60
44851;DHT22;30583;48.714;9.386;2023-12-20T02:09:12;7.60;79.70
44851;DHT22;30583;48.714;9.386;2023-12-20T02:11:38;7.70;79.70
44851;DHT22;30583;48.714;9.386;2023-12-20T02:14:03;7.60;79.80
44851;DHT22;30583;48.714;9.386;2023-12-20T02:16:29;7.50;80.10
44851;DHT22;30583;48.714;9.386;2023-12-20T02:18:54;7.50;80.50
44851;DHT22;30583;48.714;9.386;2023-12-20T02:21:25;7.60;80.50
44851;DHT22;30583;48.714;9.386;2023-12-20T02:23:51;7.70;80.10
44851;DHT22;30583;48.714;9.386;2023-12-20T02:26:16;7.70;80.10
44851;DHT22;30583;48.714;9.386;2023-12-20T02:28:43;7.60;80.50
44851;DHT22;30583;48.714;9.386;2023-12-20T02:31:09;7.70;80.40
44851;DHT22;30583;48.714;9.386;2023-12-20T02:33:35;7.60;80.70
44851;DHT22;30583;48.714;9.386;2023-12-20T02:36:00;7.50;80.80
44851;DHT22;30583;48.714;9.386;2023-12-20T02:38:26;7.60;80.80
44851;DHT22;30583;48.714;9.386;2023-12-20T02:40:51;7.70;80.80
44851;DHT22;30583;48.714;9.386;2023-12-20T02:43:17;7.60;80.70
44851;DHT22;30583;48.714;9.386;2023-12-20T02:45:42;7.60;80.80
44851;DHT22;30583;48.714;9.386;2023-12-20T02:48:08;7.60;81.20
44851;DHT22;30583;48.714;9.386;2023-12-20T02:50:34;7.70;81.00
44851;DHT22;30583;48.714;9.386;2023-12-20T02:52:59;7.70;80.70
44851;DHT22;30583;48.714;9.386;2023-12-20T02:55:25;7.90;80.50
44851;DHT22;30583;48.714;9.386;2023-12-20T02:57:50;7.70;80.60
44851;DHT22;30583;48.714;9.386;2023-12-20T03:00:16;7.70;81.00
44851;DHT22;30583;48.714;9.386;2023-12-20T03:02:41;7.70;80.80
44851;DHT22;30583;48.714;9.386;2023-12-20T03:05:07;7.50;81.50
44851;DHT22;30583;48.714;9.386;2023-12-20T03:07:33;7.70;81.30
44851;DHT22;30583;48.714;9.386;2023-12-20T03:09:58;7.80;81.40
44851;DHT22;30583;48.714;9.386;2023-12-20T03:12:24;7.70;81.00
44851;DHT22;30583;48.714;9.386;2023-12-20T03:14:49;7.70;81.00
44851;DHT22;30583;48.714;9.386;2023-12-20T03:17:15;7.80;81.20
44851;DHT22;30583;48.714;9.386;2023-12-20T03:19:40;7.70;81.60
44851;DHT22;30583;48.714;9.386;2023-12-20T03:22:06;7.70;81.80
44851;DHT22;30583;48.714;9.386;2023-12-20T03:24:32;7.70;81.90
44851;DHT22;30583;48.714;9.386;2023-12-20T03:26:57;7.60;82.00
44851;DHT22;30583;48.714;9.386;2023-12-20T03:29:23;7.20;83.00
44851;DHT22;30583;48.714;9.386;2023-12-20T03:31:48;7.40;83.30
44851;DHT22;30583;48.714;9.386;2023-12-20T03:34:14;7.60;82.80
44851;DHT22;30583;48.714;9.386;2023-12-20T03:36:40;7.60;82.60
44851;DHT22;30583;48.714;9.386;2023-12-20T03:39:05;7.30;82.80
44851;DHT22;30583;48.714;9.386;2023-12-20T03:41:31;7.30;83.60
44851;DHT22;30583;48.714;9.386;2023-12-20T03:43:56;7.50;83.30
44851;DHT22;30583;48.714;9.386;2023-12-20T03:46:22;7.70;82.70
44851;DHT22;30583;48.714;9.386;2023-12-20T03:48:48;7.60;82.60
44851;DHT22;30583;48.714;9.386;2023-12-20T03:51:13;7.50;82.60
44851;DHT22;30583;48.714;9.386;2023-12-20T03:53:39;7.40;83.00
44851;DHT22;30583;48.714;9.386;2023-12-20T03:56:06;7.10;83.40
44851;DHT22;30583;48.714;9.386;2023-12-20T03:58:31;7.10;84.40
44851;DHT22;30583;48.714;9.386;2023-12-20T04:00:57;7.20;84.10
44851;DHT22;30583;48.714;9.386;2023-12-20T04:03:22;7.30;84.10
44851;DHT22;30583;48.714;9.386;2023-12-20T04:05:48;7.50;83.30
44851;DHT22;30583;48.714;9.386;2023-12-20T04:08:13;7.60;82.80
44851;DHT22;30583;48.714;9.386;2023-12-20T04:10:39;7.60;82.50
44851;DHT22;30583;48.714;9.386;2023-12-20T04:13:05;7.40;82.60
44851;DHT22;30583;48.714;9.386;2023-12-20T04:15:30;7.50;82.70
44851;DHT22;30583;48.714;9.386;2023-12-20T04:17:56;7.60;82.50
44851;DHT22;30583;48.714;9.386;2023-12-20T04:20:21;7.40;82.40
44851;DHT22;30583;48.714;9.386;2023-12-20T04:22:47;7.30;82.80
44851;DHT22;30583;48.714;9.386;2023-12-20T04:25:12;7.20;83.20
44851;DHT22;30583;48.714;9.386;2023-12-20T04:27:38;7.20;83.20
44851;DHT22;30583;48.714;9.386;2023-12-20T04:30:04;7.20;83.60
44851;DHT22;30583;48.714;9.386;2023-12-20T04:32:30;7.20;83.40
44851;DHT22;30583;48.714;9.386;2023-12-20T04:34:56;7.00;83.70
44851;DHT22;30583;48.714;9.386;2023-12-20T04:37:22;7.10;83.50
44851;DHT22;30583;48.714;9.386;2023-12-20T04:39:48;7.00;83.50
44851;DHT22;30583;48.714;9.386;2023-12-20T04:42:13;7.00;83.80
44851;DHT22;30583;48.714;9.386;2023-12-20T04:44:39;7.10;83.90
44851;DHT22;30583;48.714;9.386;2023-12-20T04:47:04;7.00;83.60
44851;DHT22;30583;48.714;9.386;2023-12-20T04:49:30;7.20;83.30
44851;DHT22;30583;48.714;9.386;2023-12-20T04:51:55;7.20;83.20
44851;DHT22;30583;48.714;9.386;2023-12-20T04:54:21;6.90;83.50
44851;DHT22;30583;48.714;9.386;2023-12-20T04:56:47;7.20;83.70
44851;DHT22;30583;48.714;9.386;2023-12-20T04:59:13;7.40;82.90
44851;DHT22;30583;48.714;9.386;2023-12-20T05:01:38;7.40;82.70
44851;DHT22;30583;48.714;9.386;2023-12-20T05:04:04;7.60;82.00
44851;DHT22;30583;48.714;9.386;2023-12-20T05:06:30;7.70;81.80
44851;DHT22;30583;48.714;9.386;2023-12-20T05:08:55;7.70;81.40
44851;DHT22;30583;48.714;9.386;2023-12-20T05:11:21;7.60;81.50
44851;DHT22;30583;48.714;9.386;2023-12-20T05:13:46;7.70;81.50
44851;DHT22;30583;48.714;9.386;2023-12-20T05:16:12;7.80;81.20
44851;DHT22;30583;48.714;9.386;2023-12-20T05:18:39;7.80;81.10
44851;DHT22;30583;48.714;9.386;2023-12-20T05:21:05;7.80;81.00
44851;DHT22;30583;48.714;9.386;2023-12-20T05:23:30;7.80;80.90
44851;DHT22;30583;48.714;9.386;2023-12-20T05:25:56;7.70;81.40
44851;DHT22;30583;48.714;9.386;2023-12-20T05:28:22;7.50;81.60
44851;DHT22;30583;48.714;9.386;2023-12-20T05:30:47;7.40;82.00
44851;DHT22;30583;48.714;9.386;2023-12-20T05:33:13;7.30;82.60
44851;DHT22;30583;48.714;9.386;2023-12-20T05:35:38;7.70;82.10
44851;DHT22;30583;48.714;9.386;2023-12-20T05:38:04;7.70;81.50
44851;DHT22;30583;48.714;9.386;2023-12-20T05:40:29;7.80;81.20
44851;DHT22;30583;48.714;9.386;2023-12-20T05:42:55;7.80;81.00
44851;DHT22;30583;48.714;9.386;2023-12-20T05:45:21;7.70;81.00
44851;DHT22;30583;48.714;9.386;2023-12-20T05:47:46;7.70;81.40
44851;DHT22;30583;48.714;9.386;2023-12-20T05:50:12;7.70;81.00
44851;DHT22;30583;48.714;9.386;2023-12-20T05:52:37;7.60;81.30
44851;DHT22;30583;48.714;9.386;2023-12-20T05:55:03;7.60;81.60
44851;DHT22;30583;48.714;9.386;2023-12-20T05:57:28;7.60;81.40
44851;DHT22;30583;48.714;9.386;2023-12-20T05:59:54;7.70;81.30
44851;DHT22;30583;48.714;9.386;2023-12-20T06:02:20;7.70;81.10
44851;DHT22;30583;48.714;9.386;2023-12-20T06:04:45;7.70;81.30
44851;DHT22;30583;48.714;9.386;2023-12-20T06:07:12;7.60;81.50
44851;DHT22;30583;48.714;9.386;2023-12-20T06:09:38;7.60;81.70
44851;DHT22;30583;48.714;9.386;2023-12-20T06:12:04;7.60;81.90
44851;DHT22;30583;48.714;9.386;2023-12-20T06:14:29;7.70;81.80
44851;DHT22;30583;48.714;9.386;2023-12-20T06:16:56;7.70;81.90
44851;DHT22;30583;48.714;9.386;2023-12-20T06:19:22;7.70;81.60
44851;DHT22;30583;48.714;9.386;2023-12-20T06:21:47;7.70;81.40
44851;DHT22;30583;48.714;9.386;2023-12-20T06:24:13;7.60;81.50
44851;DHT22;30583;48.714;9.386;2023-12-20T06:26:38;7.70;81.20
44851;DHT22;30583;48.714;9.386;2023-12-20T06:29:04;7.70;81.10
44851;DHT22;30583;48.714;9.386;2023-12-20T06:31:30;7.70;81.00
44851;DHT22;30583;48.714;9.386;2023-12-20T06:33:55;7.40;81.40
44851;DHT22;30583;48.714;9.386;2023-12-20T06:36:25;7.60;81.80
44851;DHT22;30583;48.714;9.386;2023-12-20T06:38:51;7.50;81.90
44851;DHT22;30583;48.714;9.386;2023-12-20T06:41:17;7.40;82.00
44851;DHT22;30583;48.714;9.386;2023-12-20T06:43:43;7.40;81.90
44851;DHT22;30583;48.714;9.386;2023-12-20T06:46:08;7.50;81.70
44851;DHT22;30583;48.714;9.386;2023-12-20T06:48:34;7.60;81.60
44851;DHT22;30583;48.714;9.386;2023-12-20T06:51:01;7.60;81.30
44851;DHT22;30583;48.714;9.386;2023-12-20T06:53:30;7.70;81.20
44851;DHT22;30583;48.714;9.386;2023-12-20T06:55:55;7.60;81.10
44851;DHT22;30583;48.714;9.386;2023-12-20T06:58:24;7.70;81.00
44851;DHT22;30583;48.714;9.386;2023-12-20T07:00:50;8.20;82.80
44851;DHT22;30583;48.714;9.386;2023-12-20T07:03:16;8.40;81.70
44851;DHT22;30583;48.714;9.386;2023-12-20T07:05:42;8.70;81.00
44851;DHT22;30583;48.714;9.386;2023-12-20T07:08:08;8.70;80.50
44851;DHT22;30583;48.714;9.386;2023-12-20T07:10:33;8.50;79.10
44851;DHT22;30583;48.714;9.386;2023-12-20T07:12:59;8.10;79.40
44851;DHT22;30583;48.714;9.386;2023-12-20T07:15:24;7.90;80.30
44851;DHT22;30583;48.714;9.386;2023-12-20T07:17:50;7.90;80.40
44851;DHT22;30583;48.714;9.386;2023-12-20T07:20:15;7.90;80.20
44851;DHT22;30583;48.714;9.386;2023-12-20T07:22:41;7.90;80.20
44851;DHT22;30583;48.714;9.386;2023-12-20T07:25:07;7.80;80.30
44851;DHT22;30583;48.714;9.386;2023-12-20T07:27:33;7.70;80.60
44851;DHT22;30583;48.714;9.386;2023-12-20T07:29:59;7.60;80.90
44851;DHT22;30583;48.714;9.386;2023-12-20T07:32:24;7.60;81.00
44851;DHT22;30583;48.714;9.386;2023-12-20T07:34:50;7.60;81.40
44851;DHT22;30583;48.714;9.386;2023-12-20T07:37:15;7.60;81.50
44851;DHT22;30583;48.714;9.386;2023-12-20T07:39:41;7.70;81.10
44851;DHT22;30583;48.714;9.386;2023-12-20T07:42:07;7.70;81.30
44851;DHT22;30583;48.714;9.386;2023-12-20T07:44:33;7.70;81.30
44851;DHT22;30583;48.714;9.386;2023-12-20T07:46:59;7.60;80.90
44851;DHT22;30583;48.714;9.386;2023-12-20T07:49:26;7.60;80.80
44851;DHT22;30583;48.714;9.386;2023-12-20T07:51:51;7.40;81.40
44851;DHT22;30583;48.714;9.386;2023-12-20T07:54:17;7.60;80.90
44851;DHT22;30583;48.714;9.386;2023-12-20T07:56:43;7.60;80.90
44851;DHT22;30583;48.714;9.386;2023-12-20T07:59:09;6.90;81.20
44851;DHT22;30583;48.714;9.386;2023-12-20T08:01:34;7.10;81.70
44851;DHT22;30583;48.714;9.386;2023-12-20T08:04:00;7.00;81.60
44851;DHT22;30583;48.714;9.386;2023-12-20T08:06:25;7.10;81.90
44851;DHT22;30583;48.714;9.386;2023-12-20T08:08:51;7.10;81.40
44851;DHT22;30583;48.714;9.386;2023-12-20T08:11:16;7.20;81.10
44851;DHT22;30583;48.714;9.386;2023-12-20T08:13:43;7.10;80.70
44851;DHT22;30583;48.714;9.386;2023-12-20T08:16:08;7.10;80.00
44851;DHT22;30583;48.714;9.386;2023-12-20T08:18:34;7.20;80.20
44851;DHT22;30583;48.714;9.386;2023-12-20T08:21:00;7.20;78.80
44851;DHT22;30583;48.714;9.386;2023-12-20T08:23:26;7.30;78.30
44851;DHT22;30583;48.714;9.386;2023-12-20T08:25:52;7.20;77.70
44851;DHT22;30583;48.714;9.386;2023-12-20T08:28:17;7.30;78.10
44851;DHT22;30583;48.714;9.386;2023-12-20T08:30:43;7.20;78.30
44851;DHT22;30583;48.714;9.386;2023-12-20T08:33:08;7.40;77.80
44851;DHT22;30583;48.714;9.386;2023-12-20T08:35:40;7.40;77.70
44851;DHT22;30583;48.714;9.386;2023-12-20T08:38:06;7.60;77.20
44851;DHT22;30583;48.714;9.386;2023-12-20T08:40:32;7.50;77.20
44851;DHT22;30583;48.714;9.386;2023-12-20T08:42:57;7.60;77.60
44851;DHT22;30583;48.714;9.386;2023-12-20T08:45:23;7.50;76.90
44851;DHT22;30583;48.714;9.386;2023-12-20T08:47:50;7.50;77.00
44851;DHT22;30583;48.714;9.386;2023-12-20T08:50:15;7.50;76.60
44851;DHT22;30583;48.714;9.386;2023-12-20T08:52:41;7.20;76.90
44851;DHT22;30583;48.714;9.386;2023-12-20T08:55:08;7.20;77.40
44851;DHT22;30583;48.714;9.386;2023-12-20T08:57:35;7.30;76.70
44851;DHT22;30583;48.714;9.386;2023-12-20T09:00:00;7.50;76.40
44851;DHT22;30583;48.714;9.386;2023-12-20T09:02:26;7.50;75.60
44851;DHT22;30583;48.714;9.386;2023-12-20T09:04:51;7.70;75.00
44851;DHT22;30583;48.714;9.386;2023-12-20T09:07:24;7.70;74.70
44851;DHT22;30583;48.714;9.386;2023-12-20T09:09:50;7.80;75.20
44851;DHT22;30583;48.714;9.386;2023-12-20T09:12:20;7.60;74.90
44851;DHT22;30583;48.714;9.386;2023-12-20T09:14:47;7.20;74.70
44851;DHT22;30583;48.714;9.386;2023-12-20T09:17:12;7.10;75.20
44851;DHT22;30583;48.714;9.386;2023-12-20T09:19:38;7.40;74.60
44851;DHT22;30583;48.714;9.386;2023-12-20T09:22:05;7.30;74.70
44851;DHT22;30583;48.714;9.386;2023-12-20T09:24:30;7.10;74.00
44851;DHT22;30583;48.714;9.386;2023-12-20T09:26:56;7.20;74.10
44851;DHT22;30583;48.714;9.386;2023-12-20T09:29:22;7.10;74.20
44851;DHT22;30583;48.714;9.386;2023-12-20T09:31:48;7.30;74.40
44851;DHT22;30583;48.714;9.386;2023-12-20T09:34:15;7.20;74.10
44851;DHT22;30583;48.714;9.386;2023-12-20T09:36:42;7.10;74.40
44851;DHT22;30583;48.714;9.386;2023-12-20T09:39:13;7.40;74.20
44851;DHT22;30583;48.714;9.386;2023-12-20T09:41:42;7.20;74.00
44851;DHT22;30583;48.714;9.386;2023-12-20T09:44:08;7.20;73.90
44851;DHT22;30583;48.714;9.386;2023-12-20T09:46:39;7.30;73.50
44851;DHT22;30583;48.714;9.386;2023-12-20T09:49:08;7.30;74.60
44851;DHT22;30583;48.714;9.386;2023-12-20T09:51:34;7.30;73.90
44851;DHT22;30583;48.714;9.386;2023-12-20T09:54:03;7.10;73.50
44851;DHT22;30583;48.714;9.386;2023-12-20T09:56:29;6.90;73.20
44851;DHT22;30583;48.714;9.386;2023-12-20T09:58:55;7.40;73.70
44851;DHT22;30583;48.714;9.386;2023-12-20T10:01:21;7.30;72.70
44851;DHT22;30583;48.714;9.386;2023-12-20T10:03:47;7.40;72.60
44851;DHT22;30583;48.714;9.386;2023-12-20T10:06:13;7.10;72.70
44851;DHT22;30583;48.714;9.386;2023-12-20T10:08:39;7.00;73.50
44851;DHT22;30583;48.714;9.386;2023-12-20T10:11:05;7.70;72.70
44851;DHT22;30583;48.714;9.386;2023-12-20T10:13:31;8.20;69.80
44851;DHT22;30583;48.714;9.386;2023-12-20T10:15:56;8.90;68.70
44851;DHT22;30583;48.714;9.386;2023-12-20T10:18:23;9.50;66.50
44851;DHT22;30583;48.714;9.386;2023-12-20T10:20:49;9.90;65.80
44851;DHT22;30583;48.714;9.386;2023-12-20T10:23:15;9.20;65.70
44851;DHT22;30583;48.714;9.386;2023-12-20T10:25:41;8.50;68.20
44851;DHT22;30583;48.714;9.386;2023-12-20T10:28:15;8.90;64.40
44851;DHT22;30583;48.714;9.386;2023-12-20T10:30:44;8.90;63.90
44851;DHT22;30583;48.714;9.386;2023-12-20T10:33:10;8.60;64.90
44851;DHT22;30583;48.714;9.386;2023-12-20T10:35:36;10.10;63.00
44851;DHT22;30583;48.714;9.386;2023-12-20T10:38:06;10.40;59.20
44851;DHT22;30583;48.714;9.386;2023-12-20T10:40:35;9.70;58.80
44851;DHT22;30583;48.714;9.386;2023-12-20T10:43:04;10.40;57.70
44851;DHT22;30583;48.714;9.386;2023-12-20T10:45:30;10.10;56.80
44851;DHT22;30583;48.714;9.386;2023-12-20T10:47:58;10.00;57.60
44851;DHT22;30583;48.714;9.386;2023-12-20T10:50:27;10.50;56.90
44851;DHT22;30583;48.714;9.386;2023-12-20T10:52:55;10.50;55.50
44851;DHT22;30583;48.714;9.386;2023-12-20T10:55:24;10.40;56.60
44851;DHT22;30583;48.714;9.386;2023-12-20T10:58:10;10.50;57.00
44851;DHT22;30583;48.714;9.386;2023-12-20T11:00:41;11.10;56.10
44851;DHT22;30583;48.714;9.386;2023-12-20T11:03:10;11.10;54.40
44851;DHT22;30583;48.714;9.386;2023-12-20T11:05:50;10.20;56.60
44851;DHT22;30583;48.714;9.386;2023-12-20T11:09:43;10.10;57.60
44851;DHT22;30583;48.714;9.386;2023-12-20T11:17:11;8.70;60.30
44851;DHT22;30583;48.714;9.386;2023-12-20T11:22:33;9.10;61.10
44851;DHT22;30583;48.714;9.386;2023-12-20T11:25:10;9.50;59.10
44851;DHT22;30583;48.714;9.386;2023-12-20T11:27:40;9.30;59.70
44851;DHT22;30583;48.714;9.386;2023-12-20T11:30:07;9.10;60.70
44851;DHT22;30583;48.714;9.386;2023-12-20T11:32:36;8.60;60.30
44851;DHT22;30583;48.714;9.386;2023-12-20T11:37:38;9.10;60.60
44851;DHT22;30583;48.714;9.386;2023-12-20T11:40:13;8.90;60.80
44851;DHT22;30583;48.714;9.386;2023-12-20T11:42:41;8.70;60.70
44851;DHT22;30583;48.714;9.386;2023-12-20T11:45:11;8.50;61.00
44851;DHT22;30583;48.714;9.386;2023-12-20T11:47:37;8.70;62.00
44851;DHT22;30583;48.714;9.386;2023-12-20T11:50:03;8.70;61.40
44851;DHT22;30583;48.714;9.386;2023-12-20T11:52:30;8.40;62.10
44851;DHT22;30583;48.714;9.386;2023-12-20T11:54:57;8.60;62.80
44851;DHT22;30583;48.714;9.386;2023-12-20T11:57:23;8.30;61.40
44851;DHT22;30583;48.714;9.386;2023-12-20T11:59:49;8.10;60.70
44851;DHT22;30583;48.714;9.386;2023-12-20T12:02:15;7.90;62.00
44851;DHT22;30583;48.714;9.386;2023-12-20T12:04:42;8.00;62.00
44851;DHT22;30583;48.714;9.386;2023-12-20T12:07:07;8.20;61.20
44851;DHT22;30583;48.714;9.386;2023-12-20T12:09:34;8.50;62.70
44851;DHT22;30583;48.714;9.386;2023-12-20T12:12:00;8.20;60.60
44851;DHT22;30583;48.714;9.386;2023-12-20T12:14:26;8.20;61.30
44851;DHT22;30583;48.714;9.386;2023-12-20T12:16:53;8.50;60.40
44851;DHT22;30583;48.714;9.386;2023-12-20T12:19:22;8.30;61.50
44851;DHT22;30583;48.714;9.386;2023-12-20T12:21:49;8.30;60.50
44851;DHT22;30583;48.714;9.386;2023-12-20T12:24:20;8.20;61.10
44851;DHT22;30583;48.714;9.386;2023-12-20T12:26:50;8.00;61.20
44851;DHT22;30583;48.714;9.386;2023-12-20T12:29:17;7.90;61.00
44851;DHT22;30583;48.714;9.386;2023-12-20T12:31:42;7.90;61.00
44851;DHT22;30583;48.714;9.386;2023-12-20T12:34:08;7.70;61.50
44851;DHT22;30583;48.714;9.386;2023-12-20T12:36:34;8.00;62.50
44851;DHT22;30583;48.714;9.386;2023-12-20T12:39:03;7.50;63.00
44851;DHT22;30583;48.714;9.386;2023-12-20T12:41:30;7.50;63.80
44851;DHT22;30583;48.714;9.386;2023-12-20T12:43:56;7.60;63.10
44851;DHT22;30583;48.714;9.386;2023-12-20T12:46:22;8.00;62.40
44851;DHT22;30583;48.714;9.386;2023-12-20T12:48:47;7.50;62.90
44851;DHT22;30583;48.714;9.386;2023-12-20T12:51:14;7.60;62.70
44851;DHT22;30583;48.714;9.386;2023-12-20T12:53:40;7.60;62.90
44851;DHT22;30583;48.714;9.386;2023-12-20T12:56:06;7.50;63.20
44851;DHT22;30583;48.714;9.386;2023-12-20T12:58:33;7.60;62.90
44851;DHT22;30583;48.714;9.386;2023-12-20T13:00:58;10.70;75.10
44851;DHT22;30583;48.714;9.386;2023-12-20T13:03:24;14.20;53.60
44851;DHT22;30583;48.714;9.386;2023-12-20T13:05:50;10.60;54.60
44851;DHT22;30583;48.714;9.386;2023-12-20T13:08:16;8.30;59.30
44851;DHT22;30583;48.714;9.386;2023-12-20T13:10:41;7.60;61.90
44851;DHT22;30583;48.714;9.386;2023-12-20T13:13:07;7.40;61.60
44851;DHT22;30583;48.714;9.386;2023-12-20T13:15:33;7.80;61.60
44851;DHT22;30583;48.714;9.386;2023-12-20T13:17:59;7.80;61.00
44851;DHT22;30583;48.714;9.386;2023-12-20T13:20:25;7.70;61.00
44851;DHT22;30583;48.714;9.386;2023-12-20T13:22:51;7.30;62.00
44851;DHT22;30583;48.714;9.386;2023-12-20T13:25:16;7.60;62.40
44851;DHT22;30583;48.714;9.386;2023-12-20T13:27:42;8.00;60.70
44851;DHT22;30583;48.714;9.386;2023-12-20T13:30:09;8.10;60.90
44851;DHT22;30583;48.714;9.386;2023-12-20T13:32:35;8.30;60.80
44851;DHT22;30583;48.714;9.386;2023-12-20T13:35:01;7.70;61.50
44851;DHT22;30583;48.714;9.386;2023-12-20T13:37:26;7.70;61.20
44851;DHT22;30583;48.714;9.386;2023-12-20T13:39:52;7.70;61.90
44851;DHT22;30583;48.714;9.386;2023-12-20T13:42:18;7.80;61.90
44851;DHT22;30583;48.714;9.386;2023-12-20T13:44:45;8.00;62.00
44851;DHT22;30583;48.714;9.386;2023-12-20T13:47:12;7.90;62.20
44851;DHT22;30583;48.714;9.386;2023-12-20T13:49:38;7.90;61.70
44851;DHT22;30583;48.714;9.386;2023-12-20T13:52:03;7.90;62.40
44851;DHT22;30583;48.714;9.386;2023-12-20T13:54:29;7.90;62.20
44851;DHT22;30583;48.714;9.386;2023-12-20T13:56:55;7.60;62.30
44851;DHT22;30583;48.714;9.386;2023-12-20T13:59:23;7.80;62.60
44851;DHT22;30583;48.714;9.386;2023-12-20T14:01:48;7.80;62.70
44851;DHT22;30583;48.714;9.386;2023-12-20T14:04:15;8.10;62.30
44851;DHT22;30583;48.714;9.386;2023-12-20T14:06:41;7.80;62.10
44851;DHT22;30583;48.714;9.386;2023-12-20T14:09:07;7.70;63.00
44851;DHT22;30583;48.714;9.386;2023-12-20T14:11:33;7.90;62.80
44851;DHT22;30583;48.714;9.386;2023-12-20T14:13:58;7.60;63.10
44851;DHT22;30583;48.714;9.386;2023-12-20T14:16:24;7.90;63.20
44851;DHT22;30583;48.714;9.386;2023-12-20T14:18:50;7.80;62.80
44851;DHT22;30583;48.714;9.386;2023-12-20T14:21:17;7.70;62.60
44851;DHT22;30583;48.714;9.386;2023-12-20T14:23:43;7.50;63.10
44851;DHT22;30583;48.714;9.386;2023-12-20T14:26:09;7.70;63.30
44851;DHT22;30583;48.714;9.386;2023-12-20T14:28:41;7.70;62.90
44851;DHT22;30583;48.714;9.386;2023-12-20T14:31:06;7.70;63.10
44851;DHT22;30583;48.714;9.386;2023-12-20T14:33:32;7.70;63.60
44851;DHT22;30583;48.714;9.386;2023-12-20T14:35:58;7.80;63.20
44851;DHT22;30583;48.714;9.386;2023-12-20T14:38:23;7.70;62.60
44851;DHT22;30583;48.714;9.386;2023-12-20T14:40:49;7.80;62.50
44851;DHT22;30583;48.714;9.386;2023-12-20T14:43:16;7.90;62.90
44851;DHT22;30583;48.714;9.386;2023-12-20T14:45:42;7.90;63.00
44851;DHT22;30583;48.714;9.386;2023-12-20T14:48:07;7.70;63.40
44851;DHT22;30583;48.714;9.386;2023-12-20T14:50:33;7.80;62.90
44851;DHT22;30583;48.714;9.386;2023-12-20T14:52:59;7.70;63.50
44851;DHT22;30583;48.714;9.386;2023-12-20T14:55:25;7.70;63.60
44851;DHT22;30583;48.714;9.386;2023-12-20T14:57:53;7.40;64.30
44851;DHT22;30583;48.714;9.386;2023-12-20T15:00:18;7.40;65.00
44851;DHT22;30583;48.714;9.386;2023-12-20T15:02:45;7.30;65.10
44851;DHT22;30583;48.714;9.386;2023-12-20T15:05:11;7.30;65.70
44851;DHT22;30583;48.714;9.386;2023-12-20T15:07:36;7.40;65.70
44851;DHT22;30583;48.714;9.386;2023-12-20T15:10:02;7.40;65.10
44851;DHT22;30583;48.714;9.386;2023-12-20T15:12:28;7.40;65.60
44851;DHT22;30583;48.714;9.386;2023-12-20T15:14:53;7.10;66.50
44851;DHT22;30583;48.714;9.386;2023-12-20T15:17:19;7.20;66.70
44851;DHT22;30583;48.714;9.386;2023-12-20T15:19:44;7.30;67.00
44851;DHT22;30583;48.714;9.386;2023-12-20T15:22:10;7.30;66.90
44851;DHT22;30583;48.714;9.386;2023-12-20T15:24:39;7.60;66.70
44851;DHT22;30583;48.714;9.386;2023-12-20T15:27:06;7.20;67.00
44851;DHT22;30583;48.714;9.386;2023-12-20T15:29:32;7.40;66.90
44851;DHT22;30583;48.714;9.386;2023-12-20T15:31:58;7.20;67.50
44851;DHT22;30583;48.714;9.386;2023-12-20T15:34:23;7.10;68.10
44851;DHT22;30583;48.714;9.386;2023-12-20T15:36:49;6.70;69.20
44851;DHT22;30583;48.714;9.386;2023-12-20T15:39:15;6.90;69.60
44851;DHT22;30583;48.714;9.386;2023-12-20T15:41:40;7.20;68.90
44851;DHT22;30583;48.714;9.386;2023-12-20T15:44:06;7.40;68.60
44851;DHT22;30583;48.714;9.386;2023-12-20T15:46:31;7.30;68.50
44851;DHT22;30583;48.714;9.386;2023-12-20T15:48:57;7.40;68.00